createdAt,value
2019-04-30T00:02:16.946Z,8.67
2019-04-30T00:04:48.061Z,8.67
2019-04-30T00:07:19.046Z,8.69
2019-04-30T00:09:49.267Z,8.63
2019-04-30T00:12:17.648Z,8.66
2019-04-30T00:14:46.118Z,8.64
2019-04-30T00:17:16.015Z,8.68
2019-04-30T00:19:45.895Z,8.68
2019-04-30T00:22:15.814Z,8.68
2019-04-30T00:24:48.074Z,8.72
2019-04-30T00:27:15.105Z,8.69
2019-04-30T00:29:45.706Z,8.69
2019-04-30T00:32:15.953Z,8.64
2019-04-30T00:34:45.582Z,8.61
2019-04-30T00:37:18.530Z,8.52
2019-04-30T00:39:50.740Z,8.53
2019-04-30T00:42:17.299Z,8.53
2019-04-30T00:44:52.707Z,8.48
2019-04-30T00:47:21.456Z,8.41
2019-04-30T00:49:52.044Z,8.32
2019-04-30T00:52:21.303Z,8.47
2019-04-30T00:54:49.911Z,8.45
2019-04-30T00:57:18.607Z,8.47
2019-04-30T00:59:48.069Z,8.51
2019-04-30T01:02:32.168Z,8.52
2019-04-30T01:05:05.181Z,8.37
2019-04-30T01:07:35.329Z,8.43
2019-04-30T01:10:05.139Z,8.31
2019-04-30T01:12:39.096Z,8.24
2019-04-30T01:15:06.403Z,8.27
2019-04-30T01:17:35.770Z,8.29
2019-04-30T01:20:05.575Z,8.29
2019-04-30T01:22:34.210Z,8.31
2019-04-30T01:25:09.131Z,8.38
2019-04-30T01:27:34.166Z,8.38
2019-04-30T01:30:04.318Z,8.47
2019-04-30T01:32:32.518Z,8.45
2019-04-30T01:35:00.637Z,8.48
2019-04-30T01:37:32.610Z,8.48
2019-04-30T01:40:03.192Z,8.42
2019-04-30T01:42:29.325Z,8.35
2019-04-30T01:44:58.993Z,8.41
2019-04-30T01:47:28.834Z,8.48
2019-04-30T01:50:00.942Z,8.36
2019-04-30T01:52:49.342Z,8.26
2019-04-30T01:55:20.840Z,8.24
2019-04-30T01:57:59.234Z,8.20
2019-04-30T02:00:33.065Z,8.26
2019-04-30T02:03:01.626Z,8.39
2019-04-30T02:05:29.915Z,8.40
2019-04-30T02:07:58.580Z,8.45
2019-04-30T02:10:28.544Z,8.22
2019-04-30T02:12:59.056Z,8.29
2019-04-30T02:15:29.186Z,8.33
2019-04-30T02:17:58.693Z,8.32
2019-04-30T02:20:28.667Z,8.26
2019-04-30T02:22:58.705Z,8.20
2019-04-30T02:25:29.338Z,8.27
2019-04-30T02:27:59.053Z,8.26
2019-04-30T02:30:30.502Z,8.28
2019-04-30T02:33:00.635Z,8.26
2019-04-30T02:35:42.247Z,8.31
2019-04-30T02:38:20.157Z,8.43
2019-04-30T02:40:50.774Z,8.43
2019-04-30T02:43:22.644Z,8.45
2019-04-30T02:45:54.465Z,8.46
2019-04-30T02:48:25.079Z,8.36
2019-04-30T02:50:57.267Z,8.45
2019-04-30T02:54:23.896Z,8.42
2019-04-30T02:56:55.882Z,8.29
2019-04-30T02:59:24.425Z,8.11
2019-04-30T03:01:52.936Z,8.11
2019-04-30T03:04:21.066Z,8.16
2019-04-30T03:06:50.447Z,8.10
2019-04-30T03:09:20.247Z,8.25
2019-04-30T03:11:50.163Z,8.26
2019-04-30T03:14:20.103Z,8.32
2019-04-30T03:16:55.697Z,8.33
2019-04-30T03:19:42.274Z,8.29
2019-04-30T03:22:22.756Z,8.26
2019-04-30T03:24:51.192Z,8.26
2019-04-30T03:27:21.060Z,8.14
2019-04-30T03:29:50.502Z,8.08
2019-04-30T03:32:22.427Z,8.03
2019-04-30T03:34:51.544Z,8.09
2019-04-30T03:37:19.942Z,8.12
2019-04-30T03:39:49.357Z,8.14
2019-04-30T03:42:19.857Z,8.08
2019-04-30T03:44:51.751Z,8.11
2019-04-30T03:47:20.438Z,8.13
2019-04-30T03:49:49.905Z,8.10
2019-04-30T03:52:19.754Z,8.09
2019-04-30T03:54:49.422Z,8.05
2019-04-30T03:57:20.306Z,8.15
2019-04-30T03:59:49.936Z,8.16
2019-04-30T04:02:32.076Z,8.04
2019-04-30T04:05:21.621Z,8.01
2019-04-30T04:08:04.890Z,7.87
2019-04-30T04:10:53.078Z,7.87
2019-04-30T04:13:21.965Z,7.88
2019-04-30T04:15:50.271Z,7.89
2019-04-30T04:18:20.204Z,8.04
2019-04-30T04:20:51.995Z,8.05
2019-04-30T04:23:19.444Z,8.06
2019-04-30T04:25:49.902Z,8.06
2019-04-30T04:28:20.249Z,7.95
2019-04-30T04:30:50.595Z,8.12
2019-04-30T04:33:20.053Z,8.15
2019-04-30T04:35:49.897Z,7.98
2019-04-30T04:38:20.355Z,7.97
2019-04-30T04:40:50.178Z,7.98
2019-04-30T04:43:20.166Z,8.07
2019-04-30T04:45:49.764Z,8.09
2019-04-30T04:48:19.861Z,8.03
2019-04-30T04:50:50.131Z,8.10
2019-04-30T04:53:19.621Z,8.17
2019-04-30T04:55:49.865Z,8.07
2019-04-30T04:58:21.713Z,8.10
2019-04-30T05:00:49.452Z,8.26
2019-04-30T05:03:24.138Z,8.30
2019-04-30T05:05:53.174Z,8.25
2019-04-30T05:08:21.378Z,8.13
2019-04-30T05:10:50.184Z,8.29
2019-04-30T05:13:19.202Z,8.20
2019-04-30T05:15:51.239Z,8.18
2019-04-30T05:18:19.167Z,8.24
2019-04-30T05:20:49.020Z,8.35
2019-04-30T05:23:21.558Z,8.42
2019-04-30T05:25:49.100Z,8.44
2019-04-30T05:28:18.946Z,8.17
2019-04-30T05:30:49.258Z,8.27
2019-04-30T05:33:18.991Z,8.40
2019-04-30T05:35:47.270Z,8.54
2019-04-30T05:38:15.446Z,8.54
2019-04-30T05:40:43.569Z,8.65
2019-04-30T05:43:12.473Z,8.58
2019-04-30T05:45:41.135Z,8.65
2019-04-30T05:48:09.600Z,8.48
2019-04-30T05:50:39.116Z,8.13
2019-04-30T05:53:08.981Z,7.96
2019-04-30T05:55:39.262Z,8.13
2019-04-30T05:58:09.373Z,8.02
2019-04-30T06:00:39.780Z,8.05
2019-04-30T06:03:09.450Z,8.10
2019-04-30T06:05:39.368Z,8.01
2019-04-30T06:08:10.708Z,8.34
2019-04-30T06:10:49.581Z,8.06
2019-04-30T06:13:25.723Z,8.29
2019-04-30T06:16:00.223Z,8.30
2019-04-30T06:18:28.748Z,8.37
2019-04-30T06:20:57.212Z,8.32
2019-04-30T06:23:25.413Z,8.42
2019-04-30T06:25:59.938Z,8.47
2019-04-30T06:28:24.712Z,8.59
2019-04-30T06:30:53.709Z,8.63
2019-04-30T06:33:21.967Z,8.48
2019-04-30T06:35:51.396Z,8.56
2019-04-30T06:38:19.836Z,8.60
2019-04-30T06:40:48.895Z,8.73
2019-04-30T06:43:20.520Z,8.78
2019-04-30T06:45:51.203Z,8.86
2019-04-30T06:48:19.985Z,8.83
2019-04-30T06:50:49.251Z,8.73
2019-04-30T06:53:19.250Z,8.71
2019-04-30T06:55:49.215Z,8.75
2019-04-30T06:58:20.550Z,8.92
2019-04-30T07:00:49.769Z,8.58
2019-04-30T07:03:19.188Z,8.87
2019-04-30T07:05:48.818Z,8.91
2019-04-30T07:08:46.768Z,8.89
2019-04-30T07:11:29.329Z,8.97
2019-04-30T07:13:59.807Z,8.86
2019-04-30T07:16:29.640Z,8.72
2019-04-30T07:18:58.625Z,9.05
2019-04-30T07:21:31.195Z,9.06
2019-04-30T07:23:59.572Z,8.93
2019-04-30T07:26:28.945Z,8.93
2019-04-30T07:29:01.998Z,9.00
2019-04-30T07:31:29.560Z,9.01
2019-04-30T07:33:59.481Z,8.97
2019-04-30T07:36:44.285Z,9.05
2019-04-30T07:38:59.871Z,9.11
2019-04-30T07:41:30.865Z,9.01
2019-04-30T07:43:59.658Z,9.44
2019-04-30T07:46:30.039Z,9.50
2019-04-30T07:49:00.099Z,9.58
2019-04-30T07:51:32.072Z,9.70
2019-04-30T07:53:59.022Z,10.01
2019-04-30T07:56:32.393Z,9.72
2019-04-30T07:59:00.775Z,9.70
2019-04-30T08:01:29.497Z,9.80
2019-04-30T08:04:18.852Z,9.95
2019-04-30T08:06:47.691Z,10.43
2019-04-30T08:09:19.608Z,10.51
2019-04-30T08:11:49.128Z,10.69
2019-04-30T08:14:18.486Z,10.74
2019-04-30T08:16:48.505Z,10.56
2019-04-30T08:19:19.109Z,10.82
2019-04-30T08:21:48.606Z,10.43
2019-04-30T08:24:16.937Z,11.00
2019-04-30T08:26:45.057Z,11.47
2019-04-30T08:29:13.935Z,11.50
2019-04-30T08:31:42.251Z,11.57
2019-04-30T08:34:11.005Z,11.83
2019-04-30T08:36:39.749Z,12.05
2019-04-30T08:39:09.676Z,11.72
2019-04-30T08:41:39.230Z,12.15
2019-04-30T08:44:09.430Z,12.06
2019-04-30T08:46:38.772Z,12.22
2019-04-30T08:49:09.800Z,12.28
2019-04-30T08:51:38.912Z,12.77
2019-04-30T08:54:09.552Z,12.64
2019-04-30T08:56:38.865Z,11.86
2019-04-30T08:59:08.731Z,12.63
2019-04-30T09:01:38.695Z,12.46
2019-04-30T09:04:07.731Z,12.14
2019-04-30T09:06:36.054Z,12.23
2019-04-30T09:09:15.759Z,12.62
2019-04-30T09:11:53.094Z,12.44
2019-04-30T09:14:14.573Z,12.50
2019-04-30T09:16:42.774Z,12.28
2019-04-30T09:19:11.017Z,13.08
2019-04-30T09:21:40.235Z,12.86
2019-04-30T09:24:09.533Z,12.83
2019-04-30T09:26:39.195Z,12.51
2019-04-30T09:29:09.308Z,12.66
2019-04-30T09:31:40.794Z,12.85
2019-04-30T09:34:17.127Z,13.33
2019-04-30T09:36:39.352Z,13.19
2019-04-30T09:39:08.946Z,13.14
2019-04-30T09:41:37.358Z,13.37
2019-04-30T09:44:07.383Z,13.17
2019-04-30T09:46:36.176Z,13.52
2019-04-30T09:49:04.841Z,13.43
2019-04-30T09:51:33.679Z,13.37
2019-04-30T09:54:03.548Z,12.70
2019-04-30T09:56:33.420Z,13.12
2019-04-30T09:59:02.012Z,13.29
2019-04-30T10:01:32.456Z,13.30
2019-04-30T10:04:01.729Z,13.45
2019-04-30T10:06:39.599Z,13.35
2019-04-30T10:09:01.404Z,13.47
2019-04-30T10:11:45.973Z,13.23
2019-04-30T10:14:14.696Z,13.33
2019-04-30T10:17:02.647Z,13.19
2019-04-30T10:19:31.468Z,13.11
2019-04-30T10:22:00.334Z,13.42
2019-04-30T10:24:29.506Z,13.30
2019-04-30T10:26:59.932Z,13.28
2019-04-30T10:29:28.501Z,13.70
2019-04-30T10:31:58.789Z,13.85
2019-04-30T10:34:27.638Z,13.19
2019-04-30T10:36:59.614Z,14.06
2019-04-30T10:39:29.687Z,13.76
2019-04-30T10:41:58.076Z,13.90
2019-04-30T10:44:29.769Z,14.27
2019-04-30T10:46:59.371Z,13.99
2019-04-30T10:49:29.217Z,13.83
2019-04-30T10:52:00.823Z,14.06
2019-04-30T10:54:29.078Z,13.82
2019-04-30T10:56:59.152Z,14.38
2019-04-30T10:59:27.742Z,14.36
2019-04-30T11:01:56.180Z,14.29
2019-04-30T11:04:24.408Z,14.04
2019-04-30T11:06:54.692Z,14.60
2019-04-30T11:09:24.898Z,14.63
2019-04-30T11:11:53.117Z,14.66
2019-04-30T11:14:21.710Z,14.65
2019-04-30T11:16:51.659Z,14.61
2019-04-30T11:19:20.213Z,14.74
2019-04-30T11:21:49.283Z,14.66
2019-04-30T11:24:19.507Z,14.73
2019-04-30T11:26:50.071Z,14.61
2019-04-30T11:29:18.310Z,15.09
2019-04-30T11:31:53.433Z,15.20
2019-04-30T11:34:22.072Z,15.37
2019-04-30T11:36:51.329Z,15.59
2019-04-30T11:39:21.483Z,15.36
2019-04-30T11:41:49.649Z,15.38
2019-04-30T11:44:28.467Z,15.50
2019-04-30T11:47:26.236Z,15.57
2019-04-30T11:49:54.700Z,15.45
2019-04-30T11:52:23.131Z,15.37
2019-04-30T11:54:54.316Z,15.62
2019-04-30T11:57:21.605Z,15.60
2019-04-30T11:59:49.819Z,15.71
2019-04-30T12:02:31.895Z,15.87
2019-04-30T12:05:00.076Z,15.99
2019-04-30T12:07:48.295Z,15.95
2019-04-30T12:10:36.716Z,15.95
2019-04-30T12:13:09.594Z,16.32
2019-04-30T12:15:37.921Z,16.17
2019-04-30T12:18:06.227Z,16.60
2019-04-30T12:20:34.687Z,16.29
2019-04-30T12:23:02.826Z,16.26
2019-04-30T12:25:31.006Z,16.48
2019-04-30T12:27:59.625Z,16.57
2019-04-30T12:30:28.975Z,16.70
2019-04-30T12:32:58.988Z,16.78
2019-04-30T12:35:27.377Z,17.02
2019-04-30T12:37:55.555Z,16.77
2019-04-30T12:40:29.082Z,16.57
2019-04-30T12:42:54.641Z,16.81
2019-04-30T12:45:24.108Z,17.03
2019-04-30T12:47:56.324Z,16.86
2019-04-30T12:50:53.566Z,17.02
2019-04-30T12:53:30.973Z,17.10
2019-04-30T12:56:26.669Z,17.32
2019-04-30T12:58:49.525Z,17.06
2019-04-30T13:01:17.680Z,16.91
2019-04-30T13:03:55.937Z,17.05
2019-04-30T13:06:17.173Z,17.20
2019-04-30T13:08:46.744Z,17.01
2019-04-30T13:11:16.321Z,16.60
2019-04-30T13:13:45.467Z,17.12
2019-04-30T13:16:13.944Z,17.22
2019-04-30T13:18:42.201Z,17.26
2019-04-30T13:21:10.420Z,17.17
2019-04-30T13:23:38.884Z,17.25
2019-04-30T13:26:08.963Z,17.44
2019-04-30T13:28:48.775Z,17.51
2019-04-30T13:31:19.238Z,17.53
2019-04-30T13:33:52.439Z,17.36
2019-04-30T13:36:21.480Z,17.33
2019-04-30T13:39:02.278Z,17.55
2019-04-30T13:41:44.510Z,17.52
2019-04-30T13:44:14.701Z,17.36
2019-04-30T13:46:42.961Z,17.17
2019-04-30T13:49:11.223Z,17.30
2019-04-30T13:51:39.392Z,17.38
2019-04-30T13:54:08.466Z,17.31
2019-04-30T13:56:36.976Z,17.40
2019-04-30T13:59:05.121Z,17.26
2019-04-30T14:01:33.468Z,17.39
2019-04-30T14:04:28.020Z,17.42
2019-04-30T14:07:15.771Z,17.37
2019-04-30T14:09:44.159Z,17.43
2019-04-30T14:12:12.763Z,17.43
2019-04-30T14:14:41.077Z,17.33
2019-04-30T14:17:09.410Z,17.56
2019-04-30T14:19:37.713Z,17.70
2019-04-30T14:22:08.818Z,17.24
2019-04-30T14:24:37.346Z,17.11
2019-04-30T14:27:06.217Z,17.14
2019-04-30T14:29:34.329Z,17.11
2019-04-30T14:32:03.228Z,17.31
2019-04-30T14:34:31.675Z,17.23
2019-04-30T14:37:00.188Z,17.24
2019-04-30T14:39:29.166Z,17.19
2019-04-30T14:42:00.071Z,17.22
2019-04-30T14:44:31.853Z,17.01
2019-04-30T14:47:22.790Z,16.93
2019-04-30T14:50:05.242Z,17.27
2019-04-30T14:52:40.714Z,17.01
2019-04-30T14:55:29.470Z,16.79
2019-04-30T14:58:16.499Z,17.02
2019-04-30T15:01:00.685Z,16.93
2019-04-30T15:03:29.729Z,16.94
2019-04-30T15:05:58.990Z,16.67
2019-04-30T15:08:29.185Z,16.77
2019-04-30T15:10:57.428Z,17.07
2019-04-30T15:13:25.980Z,16.59
2019-04-30T15:15:54.089Z,16.73
2019-04-30T15:18:23.029Z,16.75
2019-04-30T15:20:51.843Z,16.97
2019-04-30T15:23:58.576Z,16.53
2019-04-30T15:26:24.473Z,16.60
2019-04-30T15:28:49.488Z,16.63
2019-04-30T15:31:18.476Z,16.57
2019-04-30T15:34:12.444Z,16.38
2019-04-30T15:36:41.086Z,16.46
2019-04-30T15:39:42.204Z,16.34
2019-04-30T15:42:12.096Z,16.46
2019-04-30T15:44:45.422Z,16.20
2019-04-30T15:47:13.443Z,16.15
2019-04-30T15:49:41.869Z,16.29
2019-04-30T15:52:10.996Z,16.24
2019-04-30T15:54:39.984Z,16.39
2019-04-30T15:57:08.883Z,16.29
2019-04-30T15:59:44.431Z,16.32
2019-04-30T16:02:21.145Z,16.15
2019-04-30T16:05:07.710Z,16.14
2019-04-30T16:07:40.765Z,16.22
2019-04-30T16:10:24.391Z,15.92
2019-04-30T16:13:00.241Z,15.89
2019-04-30T16:15:29.786Z,15.82
2019-04-30T16:18:00.101Z,15.80
2019-04-30T16:20:30.040Z,15.76
2019-04-30T16:22:59.111Z,15.61
2019-04-30T16:25:27.414Z,15.41
2019-04-30T16:27:55.534Z,15.57
2019-04-30T16:30:23.982Z,15.50
2019-04-30T16:32:52.099Z,15.40
2019-04-30T16:35:20.945Z,15.41
2019-04-30T16:37:49.651Z,15.38
2019-04-30T16:40:19.055Z,15.53
2019-04-30T16:42:48.971Z,15.24
2019-04-30T16:45:18.927Z,14.92
2019-04-30T16:47:47.498Z,14.64
2019-04-30T16:50:16.135Z,14.53
2019-04-30T16:52:44.527Z,14.57
2019-04-30T16:55:13.604Z,14.24
2019-04-30T16:57:41.729Z,14.05
2019-04-30T17:00:14.412Z,14.10
2019-04-30T17:02:45.506Z,14.04
2019-04-30T17:05:21.166Z,13.80
2019-04-30T17:08:06.960Z,13.86
2019-04-30T17:10:57.842Z,13.62
2019-04-30T17:13:45.645Z,13.30
2019-04-30T17:16:19.542Z,13.46
2019-04-30T17:18:49.958Z,13.58
2019-04-30T17:21:19.687Z,13.42
2019-04-30T17:23:50.869Z,13.19
2019-04-30T17:26:18.456Z,12.94
2019-04-30T17:28:46.900Z,12.65
2019-04-30T17:31:15.237Z,12.70
2019-04-30T17:33:43.498Z,12.54
2019-04-30T17:36:11.604Z,12.37
2019-04-30T17:38:40.280Z,12.30
2019-04-30T17:41:08.798Z,12.24
2019-04-30T17:43:39.492Z,12.07
2019-04-30T17:46:08.026Z,11.78
2019-04-30T17:48:36.159Z,11.79
2019-04-30T17:51:04.533Z,11.82
2019-04-30T17:53:34.374Z,11.74
2019-04-30T17:56:02.635Z,11.65
2019-04-30T17:58:30.852Z,11.54
2019-04-30T18:01:01.712Z,11.49
2019-04-30T18:03:29.824Z,11.31
2019-04-30T18:05:59.181Z,11.28
2019-04-30T18:08:27.603Z,11.07
2019-04-30T18:10:56.816Z,11.09
2019-04-30T18:13:25.073Z,11.00
2019-04-30T18:15:53.730Z,10.87
2019-04-30T18:18:31.243Z,10.90
2019-04-30T18:21:19.007Z,10.93
2019-04-30T18:24:05.836Z,10.89
2019-04-30T18:26:37.736Z,10.87
2019-04-30T18:29:06.222Z,10.64
2019-04-30T18:31:34.556Z,10.78
2019-04-30T18:34:02.758Z,10.53
2019-04-30T18:36:31.111Z,10.46
2019-04-30T18:38:59.499Z,10.47
2019-04-30T18:41:28.232Z,10.47
2019-04-30T18:43:56.507Z,10.34
2019-04-30T18:46:25.016Z,10.25
2019-04-30T18:48:53.325Z,10.09
2019-04-30T18:51:35.861Z,10.18
2019-04-30T18:53:51.824Z,10.25
2019-04-30T18:56:20.089Z,10.17
2019-04-30T18:58:49.173Z,10.10
2019-04-30T19:01:17.820Z,10.07
2019-04-30T19:03:46.698Z,10.08
2019-04-30T19:06:23.837Z,10.06
2019-04-30T19:09:13.189Z,10.06
2019-04-30T19:11:49.375Z,9.90
2019-04-30T19:14:26.429Z,9.85
2019-04-30T19:17:14.449Z,9.94
2019-04-30T19:20:11.457Z,9.96
2019-04-30T19:22:40.464Z,9.98
2019-04-30T19:25:09.085Z,10.01
2019-04-30T19:27:37.227Z,10.07
2019-04-30T19:30:06.084Z,10.02
2019-04-30T19:32:34.869Z,10.07
2019-04-30T19:35:03.853Z,10.13
2019-04-30T19:37:32.355Z,10.11
2019-04-30T19:40:00.839Z,10.16
2019-04-30T19:42:29.492Z,10.00
2019-04-30T19:45:08.688Z,9.97
2019-04-30T19:47:30.693Z,9.89
2019-04-30T19:49:59.490Z,9.90
2019-04-30T19:52:29.654Z,10.02
2019-04-30T19:54:58.712Z,10.04
2019-04-30T19:57:28.655Z,9.94
2019-04-30T19:59:58.687Z,9.93
2019-04-30T20:02:29.362Z,9.94
2019-04-30T20:04:59.058Z,9.92
2019-04-30T20:07:29.127Z,9.87
2019-04-30T20:10:03.488Z,9.74
2019-04-30T20:12:29.057Z,9.83
2019-04-30T20:14:57.570Z,9.83
2019-04-30T20:17:25.763Z,9.68
2019-04-30T20:19:54.081Z,9.58
2019-04-30T20:22:22.578Z,9.64
2019-04-30T20:24:51.534Z,9.61
2019-04-30T20:27:19.796Z,9.62
2019-04-30T20:29:49.350Z,9.74
2019-04-30T20:32:20.841Z,9.63
2019-04-30T20:34:49.026Z,9.59
2019-04-30T20:37:19.611Z,9.60
2019-04-30T20:40:08.694Z,9.61
2019-04-30T20:42:40.030Z,9.59
2019-04-30T20:45:18.838Z,9.64
2019-04-30T20:47:49.578Z,9.56
2019-04-30T20:50:18.090Z,9.55
2019-04-30T20:52:46.368Z,9.54
2019-04-30T20:55:14.693Z,9.57
2019-04-30T20:57:42.902Z,9.53
2019-04-30T21:00:12.369Z,9.47
2019-04-30T21:02:40.769Z,9.54
2019-04-30T21:05:09.012Z,9.59
2019-04-30T21:07:37.613Z,9.53
2019-04-30T21:10:10.169Z,9.45
2019-04-30T21:12:39.654Z,9.47
2019-04-30T21:15:09.685Z,9.54
2019-04-30T21:17:38.180Z,9.52
2019-04-30T21:20:09.598Z,9.60
2019-04-30T21:22:38.825Z,9.53
2019-04-30T21:25:09.296Z,9.65
2019-04-30T21:27:40.226Z,9.73
2019-04-30T21:30:10.462Z,9.53
2019-04-30T21:32:59.437Z,9.57
2019-04-30T21:35:51.265Z,9.49
2019-04-30T21:38:19.951Z,9.52
2019-04-30T21:40:49.220Z,9.51
2019-04-30T21:43:17.653Z,9.48
2019-04-30T21:45:45.773Z,9.47
2019-04-30T21:48:13.947Z,9.47
2019-04-30T21:51:25.515Z,9.55
2019-04-30T21:53:53.721Z,9.33
2019-04-30T21:56:21.915Z,9.33
2019-04-30T21:58:50.600Z,9.34
2019-04-30T22:01:22.525Z,9.34
2019-04-30T22:03:50.815Z,9.39
2019-04-30T22:08:55.314Z,9.38
2019-04-30T22:11:23.615Z,9.39
2019-04-30T22:13:51.759Z,9.44
2019-04-30T22:16:20.575Z,9.46
2019-04-30T22:18:48.950Z,9.49
2019-04-30T22:21:17.119Z,9.49
2019-04-30T22:23:45.684Z,9.41
2019-04-30T22:26:13.831Z,9.37
2019-04-30T22:28:42.436Z,9.34
2019-04-30T22:31:11.074Z,9.32
2019-04-30T22:33:39.555Z,9.31
2019-04-30T22:36:38.653Z,9.22
2019-04-30T22:39:30.749Z,9.40
2019-04-30T22:42:39.689Z,9.41
2019-04-30T22:45:22.698Z,9.35
2019-04-30T22:47:51.389Z,9.40
2019-04-30T22:50:19.531Z,9.32
2019-04-30T22:52:48.259Z,9.29
2019-04-30T22:55:16.399Z,9.23
2019-04-30T22:57:44.909Z,9.25
2019-04-30T23:00:21.880Z,9.07
2019-04-30T23:02:56.979Z,9.23
2019-04-30T23:05:25.585Z,9.26
2019-04-30T23:07:54.177Z,9.14
2019-04-30T23:10:22.586Z,9.12
2019-04-30T23:12:51.835Z,9.17
2019-04-30T23:15:21.016Z,9.22
2019-04-30T23:17:49.360Z,9.22
2019-04-30T23:20:18.001Z,9.28
2019-04-30T23:22:46.346Z,9.35
2019-04-30T23:25:14.879Z,9.32
2019-04-30T23:27:43.053Z,9.13
2019-04-30T23:30:12.298Z,9.16
2019-04-30T23:32:40.484Z,9.25
2019-04-30T23:35:10.585Z,9.24
2019-04-30T23:37:38.745Z,9.25
2019-04-30T23:40:32.046Z,9.16
2019-04-30T23:43:00.428Z,9.25
2019-04-30T23:45:29.093Z,9.16
2019-04-30T23:47:57.268Z,9.15
2019-04-30T23:50:25.436Z,9.20
2019-04-30T23:52:53.607Z,9.21
2019-04-30T23:55:22.114Z,9.23
2019-04-30T23:57:50.365Z,9.25
